Time;durP1;ratioP1;P1;durP2;ratioP2;P2;SDS_P1;SDS_P2;PMS_P1;PMS_P2;Temp;Humidity;BMP_temperature;BMP_pressure;BME280_temperature;BME280_humidity;BME280_pressure;Samples;Min_cycle;Max_cycle;Signal;HPM_P1;HPM_P2
2023/06/19 00:02:06;;;;;;;8.95;3.35;;;;;;;19.77;40.67;101033.25;4967380;28;20038;-70
2023/06/19 00:04:32;;;;;;;4.97;4.03;;;;;;;19.79;40.67;101029.53;4964161;28;20581;-70
2023/06/19 00:06:59;;;;;;;5.00;4.10;;;;;;;19.77;40.60;101027.94;4970446;28;20244;-76
2023/06/19 00:09:25;;;;;;;6.78;4.18;;;;;;;19.68;40.69;101021.53;4973602;28;20093;-73
2023/06/19 00:11:59;;;;;;;5.50;4.20;;;;;;;19.71;40.77;101023.97;4963371;28;20046;-69
2023/06/19 00:14:25;;;;;;;4.93;4.15;;;;;;;19.64;41.15;101018.28;4963894;28;20541;-71
2023/06/19 00:16:51;;;;;;;4.45;3.72;;;;;;;19.58;40.82;101016.09;4961677;28;20100;-71
2023/06/19 00:19:17;;;;;;;6.15;3.88;;;;;;;19.65;41.01;101009.34;4964885;28;20451;-71
2023/06/19 00:21:43;;;;;;;6.35;4.25;;;;;;;19.76;40.61;101008.53;4961059;28;20053;-70
2023/06/19 00:24:09;;;;;;;4.47;3.83;;;;;;;19.71;40.58;101000.09;4967143;28;22109;-75
2023/06/19 00:26:34;;;;;;;4.45;4.05;;;;;;;19.68;40.50;100998.53;4944158;28;20142;-71
2023/06/19 00:29:00;;;;;;;6.50;4.25;;;;;;;19.62;40.99;101001.66;4965378;28;20814;-68
2023/06/19 00:31:28;;;;;;;3.83;3.53;;;;;;;19.50;41.32;101002.53;4963921;28;20149;-68
2023/06/19 00:33:54;;;;;;;4.57;4.18;;;;;;;19.55;41.05;101004.84;4965436;28;20053;-71
2023/06/19 00:36:21;;;;;;;4.70;3.85;;;;;;;19.45;41.05;101008.19;4966561;28;20086;-74
2023/06/19 00:38:50;;;;;;;4.70;4.30;;;;;;;19.43;41.08;101007.47;4969973;28;20095;-77
2023/06/19 00:41:16;;;;;;;7.13;3.95;;;;;;;19.45;40.86;101010.00;4966681;28;20149;-75
2023/06/19 00:43:42;;;;;;;4.90;4.40;;;;;;;19.53;40.84;101001.50;4965566;28;20031;-71
2023/06/19 00:46:11;;;;;;;5.18;4.75;;;;;;;19.43;41.21;100999.50;4965485;28;20046;-71
2023/06/19 00:48:37;;;;;;;8.23;5.07;;;;;;;19.35;41.17;101003.72;4964261;28;20069;-70
2023/06/19 00:51:02;;;;;;;4.90;4.43;;;;;;;19.36;41.15;100998.28;4945943;28;20120;-80
2023/06/19 00:53:30;;;;;;;4.53;3.80;;;;;;;19.44;41.08;100997.72;4972095;28;20046;-72
2023/06/19 00:55:57;;;;;;;7.47;4.03;;;;;;;19.34;41.36;100991.41;4963658;28;20044;-70
2023/06/19 00:58:23;;;;;;;4.30;3.90;;;;;;;19.43;41.16;100993.38;4966085;28;20128;-72
2023/06/19 01:00:49;;;;;;;7.38;4.35;;;;;;;19.41;41.00;100990.84;4963167;28;20732;-71
2023/06/19 01:03:16;;;;;;;5.32;4.28;;;;;;;19.34;41.23;100984.31;4963773;28;20050;-71
2023/06/19 01:05:47;;;;;;;4.72;4.32;;;;;;;19.39;41.38;100979.53;4962758;28;20044;-70
2023/06/19 01:08:32;;;;;;;4.72;4.32;;;;;;;19.32;41.28;100972.13;4966979;28;20039;-71
2023/06/19 01:11:01;;;;;;;5.68;4.47;;;;;;;19.28;41.44;100972.38;4963796;28;20034;-68
2023/06/19 01:13:33;;;;;;;6.43;4.82;;;;;;;19.19;42.05;100962.47;4963365;28;20088;-70
2023/06/19 01:15:59;;;;;;;6.15;4.50;;;;;;;19.22;41.65;100964.88;4964780;28;20511;-70
2023/06/19 01:18:26;;;;;;;4.72;4.32;;;;;;;19.27;41.42;100951.28;4964551;28;20053;-69
2023/06/19 01:20:52;;;;;;;7.45;4.60;;;;;;;19.19;41.69;100951.03;4960861;28;20038;-70
2023/06/19 01:23:17;;;;;;;5.47;4.47;;;;;;;19.17;41.66;100953.81;4965183;28;20670;-71
2023/06/19 01:25:46;;;;;;;7.22;5.00;;;;;;;19.12;41.92;100947.16;4960873;28;20053;-70
2023/06/19 01:28:12;;;;;;;5.57;4.97;;;;;;;19.14;41.63;100942.59;4967419;28;20153;-67
2023/06/19 01:30:41;;;;;;;4.63;4.13;;;;;;;19.16;41.42;100941.50;4962221;28;20110;-67
2023/06/19 01:33:17;;;;;;;5.50;3.97;;;;;;;19.05;41.78;100944.13;4962854;28;20061;-68
2023/06/19 01:35:46;;;;;;;4.85;4.35;;;;;;;19.07;41.62;100942.19;4961778;28;20053;-68
2023/06/19 01:38:13;;;;;;;4.68;3.95;;;;;;;19.07;41.96;100948.34;4966055;28;20125;-68
2023/06/19 01:40:40;;;;;;;5.38;4.30;;;;;;;19.06;41.46;100944.00;4967245;28;20050;-69
2023/06/19 01:43:08;;;;;;;8.23;5.43;;;;;;;19.09;41.43;100942.94;4965069;28;20505;-68
2023/06/19 01:45:33;;;;;;;4.75;4.35;;;;;;;19.09;41.43;100929.69;4962665;28;20073;-68
2023/06/19 01:47:59;;;;;;;6.13;4.10;;;;;;;19.07;41.62;100936.91;4955354;28;20152;-68
2023/06/19 01:50:25;;;;;;;4.35;3.95;;;;;;;19.05;41.80;100930.88;4961397;28;20066;-68
2023/06/19 01:52:51;;;;;;;5.55;5.00;;;;;;;19.07;41.40;100926.31;4963935;28;20088;-68
2023/06/19 01:55:18;;;;;;;6.32;5.10;;;;;;;19.07;41.00;100927.16;4961725;28;20193;-75
2023/06/19 01:57:45;;;;;;;7.93;4.45;;;;;;;19.02;41.27;100928.47;4967669;28;20034;-78
2023/06/19 02:00:11;;;;;;;7.32;3.97;;;;;;;18.99;41.48;100918.94;4941256;28;20057;-76
2023/06/19 02:02:41;;;;;;;4.80;4.28;;;;;;;18.98;41.28;100921.72;4951413;28;20625;-77
2023/06/19 02:05:07;;;;;;;8.60;5.00;;;;;;;18.98;41.33;100911.94;4967770;28;20037;-77
2023/06/19 02:07:32;;;;;;;5.47;5.07;;;;;;;19.03;41.35;100903.66;4964201;28;20050;-76
2023/06/19 02:09:57;;;;;;;5.05;4.65;;;;;;;19.00;40.73;100903.91;4965473;28;20034;-77
2023/06/19 02:12:23;;;;;;;6.45;4.93;;;;;;;18.95;40.83;100896.31;4963053;28;20070;-70
2023/06/19 02:14:49;;;;;;;7.07;4.57;;;;;;;18.98;40.80;100895.22;4965345;28;20042;-70
2023/06/19 02:17:14;;;;;;;5.35;4.22;;;;;;;18.94;40.76;100894.59;4964392;28;20509;-71
2023/06/19 02:19:40;;;;;;;8.38;4.68;;;;;;;18.97;40.68;100893.53;4955002;28;20030;-70
2023/06/19 02:22:06;;;;;;;8.05;4.75;;;;;;;18.97;40.46;100885.59;4958325;28;20048;-77
2023/06/19 02:24:32;;;;;;;5.00;4.00;;;;;;;19.06;39.87;100880.44;4962704;28;20058;-76
2023/06/19 02:26:58;;;;;;;6.72;4.70;;;;;;;19.04;40.19;100881.53;4965429;28;20101;-76
2023/06/19 02:29:23;;;;;;;6.93;4.20;;;;;;;19.05;39.88;100880.53;4961863;28;20141;-76
2023/06/19 02:31:49;;;;;;;7.15;5.38;;;;;;;19.09;39.57;100879.34;4964757;28;20027;-76
2023/06/19 02:34:15;;;;;;;7.57;4.25;;;;;;;19.18;39.28;100876.00;4966183;28;20096;-76
2023/06/19 02:36:40;;;;;;;7.25;4.63;;;;;;;19.14;39.34;100871.88;4963925;28;20035;-74
2023/06/19 02:39:08;;;;;;;6.47;4.22;;;;;;;19.10;39.20;100873.13;4965721;28;20046;-75
2023/06/19 02:41:34;;;;;;;7.28;4.40;;;;;;;19.11;39.28;100864.19;4963000;28;20045;-75
2023/06/19 02:43:59;;;;;;;4.88;4.47;;;;;;;19.07;39.11;100863.56;4964013;28;20610;-75
2023/06/19 02:46:27;;;;;;;6.35;4.63;;;;;;;19.13;39.21;100856.97;4963957;28;20038;-75
2023/06/19 02:48:52;;;;;;;4.63;4.20;;;;;;;19.06;39.30;100856.59;4962813;28;20704;-76
2023/06/19 02:51:18;;;;;;;5.63;4.68;;;;;;;19.09;38.93;100861.66;4965013;28;20605;-76
2023/06/19 02:53:43;;;;;;;6.57;4.45;;;;;;;19.18;38.56;100869.88;4962742;28;20348;-76
2023/06/19 02:56:11;;;;;;;5.47;4.93;;;;;;;19.11;38.91;100872.13;4966820;28;20037;-76
2023/06/19 02:58:37;;;;;;;9.88;4.80;;;;;;;19.11;38.36;100871.31;4962978;28;20037;-76
2023/06/19 03:01:03;;;;;;;4.85;4.38;;;;;;;19.09;38.52;100866.09;4964998;28;20291;-76
2023/06/19 03:03:29;;;;;;;4.90;4.28;;;;;;;19.04;38.80;100860.31;4968556;28;20038;-79
2023/06/19 03:05:55;;;;;;;5.03;4.57;;;;;;;18.98;38.75;100866.09;4952614;28;20034;-79
2023/06/19 03:08:20;;;;;;;4.95;4.47;;;;;;;19.05;38.59;100854.06;4966439;28;20078;-77
2023/06/19 03:10:46;;;;;;;5.68;4.57;;;;;;;18.93;38.38;100855.00;4964475;28;20778;-76
2023/06/19 03:13:13;;;;;;;7.00;4.53;;;;;;;18.92;38.47;100853.31;4963834;28;20069;-77
2023/06/19 03:15:39;;;;;;;5.82;4.07;;;;;;;19.04;38.41;100855.03;4963411;28;20034;-71
2023/06/19 03:18:07;;;;;;;10.95;4.30;;;;;;;19.04;38.19;100857.69;4961503;28;20238;-72
2023/06/19 03:20:37;;;;;;;5.00;4.50;;;;;;;19.04;37.97;100842.63;4962279;28;20069;-76
2023/06/19 03:23:02;;;;;;;4.55;4.03;;;;;;;19.02;38.25;100849.84;4963788;28;20121;-72
2023/06/19 03:25:34;;;;;;;9.02;5.50;;;;;;;19.13;38.09;100849.03;4965295;28;20038;-73
2023/06/19 03:28:04;;;;;;;7.70;4.65;;;;;;;19.16;37.77;100840.81;4963311;28;20049;-72
2023/06/19 03:30:30;;;;;;;6.70;4.93;;;;;;;19.21;38.10;100846.63;4965152;28;20126;-72
2023/06/19 03:32:56;;;;;;;6.05;3.95;;;;;;;19.13;38.11;100841.06;4962062;28;20649;-72
2023/06/19 03:35:40;;;;;;;5.20;4.70;;;;;;;19.33;37.87;100846.66;4963205;28;20034;-71
2023/06/19 03:38:08;;;;;;;7.65;5.00;;;;;;;19.19;38.03;100848.56;4963993;28;20873;-72
2023/06/19 03:40:34;;;;;;;6.05;5.25;;;;;;;19.06;38.38;100850.47;4961278;28;20073;-71
2023/06/19 03:43:06;;;;;;;5.63;5.10;;;;;;;19.09;38.49;100856.34;4962561;28;20053;-71
2023/06/19 03:45:31;;;;;;;7.28;5.03;;;;;;;19.05;38.40;100862.00;4963944;28;20030;-71
2023/06/19 03:47:57;;;;;;;5.65;5.10;;;;;;;19.10;38.39;100857.22;4961121;28;20046;-71
2023/06/19 03:50:23;;;;;;;7.45;5.20;;;;;;;19.23;38.26;100850.00;4947856;28;20517;-70
2023/06/19 03:52:52;;;;;;;5.78;5.22;;;;;;;19.08;38.13;100853.84;4959506;28;20209;-72
2023/06/19 03:55:17;;;;;;;5.35;4.85;;;;;;;18.93;38.33;100857.66;4955094;28;20053;-74
2023/06/19 03:57:43;;;;;;;5.35;4.55;;;;;;;19.13;37.54;100856.13;4962392;28;20046;-71
2023/06/19 04:00:10;;;;;;;6.78;4.13;;;;;;;19.13;37.74;100856.97;4961081;28;20599;-69
2023/06/19 04:02:37;;;;;;;5.38;4.22;;;;;;;19.12;37.49;100855.28;4962026;28;20050;-77
2023/06/19 04:05:04;;;;;;;6.13;4.68;;;;;;;18.87;37.38;100851.84;4963793;28;20065;-70
2023/06/19 04:07:31;;;;;;;8.75;4.57;;;;;;;19.08;36.73;100856.50;4957108;28;20047;-70
2023/06/19 04:09:57;;;;;;;6.45;3.80;;;;;;;18.97;37.15;100857.31;4960168;28;20026;-76
2023/06/19 04:12:22;;;;;;;6.00;4.35;;;;;;;19.08;36.45;100864.44;4953608;28;20065;-73
2023/06/19 04:14:48;;;;;;;4.80;4.30;;;;;;;19.19;36.43;100855.63;4962368;28;20058;-71
2023/06/19 04:17:15;;;;;;;6.32;4.47;;;;;;;19.25;36.50;100861.31;4964495;28;20133;-68
2023/06/19 04:19:41;;;;;;;5.70;4.88;;;;;;;19.22;35.99;100860.72;4968056;28;20030;-71
2023/06/19 04:22:10;;;;;;;5.65;3.63;;;;;;;19.21;36.11;100864.31;4952219;28;20780;-69
2023/06/19 04:24:35;;;;;;;4.93;3.50;;;;;;;19.42;35.97;100875.09;4979346;28;20085;-71
2023/06/19 04:27:01;;;;;;;5.43;4.65;;;;;;;19.54;35.62;100871.47;4965803;28;20038;-72
2023/06/19 04:29:31;;;;;;;4.30;3.92;;;;;;;19.75;35.26;100873.41;4961195;28;20844;-70
2023/06/19 04:31:58;;;;;;;6.38;4.35;;;;;;;19.70;35.40;100877.28;4963217;28;20524;-70
2023/06/19 04:34:25;;;;;;;5.45;4.78;;;;;;;19.74;35.73;100879.69;4962909;28;20039;-70
2023/06/19 04:36:51;;;;;;;4.28;3.88;;;;;;;19.77;35.74;100879.44;4966828;28;20041;-68
2023/06/19 04:39:16;;;;;;;7.55;4.43;;;;;;;19.90;34.88;100880.16;4962225;28;20046;-70
2023/06/19 04:41:45;;;;;;;5.25;4.05;;;;;;;20.10;35.03;100878.56;4966583;28;20401;-67
2023/06/19 04:44:13;;;;;;;4.22;3.78;;;;;;;20.22;34.34;100874.97;4962283;28;20081;-71
2023/06/19 04:47:01;;;;;;;5.60;3.97;;;;;;;20.28;34.35;100879.78;4973772;28;20117;-69
2023/06/19 04:49:30;;;;;;;4.47;3.92;;;;;;;20.43;34.04;100880.31;4966428;28;20034;-73
2023/06/19 04:51:58;;;;;;;5.03;4.35;;;;;;;20.58;34.07;100875.56;4962160;28;20035;-70
2023/06/19 04:54:25;;;;;;;5.05;4.57;;;;;;;20.54;33.84;100877.63;4968757;28;20061;-71
2023/06/19 04:56:50;;;;;;;4.78;4.30;;;;;;;20.45;34.49;100878.38;4965591;28;20801;-73
2023/06/19 04:59:17;;;;;;;3.40;3.10;;;;;;;20.46;34.61;100885.38;4961826;28;20039;-71
2023/06/19 05:01:44;;;;;;;3.92;3.50;;;;;;;20.46;34.67;100872.13;4965571;28;20042;-69
2023/06/19 05:04:10;;;;;;;4.72;4.20;;;;;;;20.46;34.59;100874.78;4964280;28;20061;-72
2023/06/19 05:06:36;;;;;;;6.97;4.35;;;;;;;20.59;34.31;100881.72;4964513;28;20061;-69
2023/06/19 05:09:02;;;;;;;5.60;4.05;;;;;;;20.88;33.68;100884.63;4964679;28;21336;-70
2023/06/19 05:11:29;;;;;;;6.25;3.30;;;;;;;21.51;32.77;100881.94;4965256;28;20564;-70
2023/06/19 05:13:55;;;;;;;5.80;3.75;;;;;;;22.58;31.17;100877.75;4959974;28;20088;-67
2023/06/19 05:16:20;;;;;;;6.22;3.88;;;;;;;23.85;29.56;100884.66;4964623;28;20407;-72
2023/06/19 05:18:45;;;;;;;4.47;4.03;;;;;;;24.05;29.00;100883.56;4963735;28;20521;-70
2023/06/19 05:21:11;;;;;;;7.28;4.18;;;;;;;24.34;29.08;100877.19;4960299;28;20157;-73
2023/06/19 05:23:40;;;;;;;5.50;4.18;;;;;;;23.45;30.09;100880.47;4963457;28;20034;-71
2023/06/19 05:26:06;;;;;;;4.38;3.33;;;;;;;22.50;31.36;100884.78;4962091;28;20116;-71
2023/06/19 05:28:32;;;;;;;4.70;4.18;;;;;;;22.38;32.31;100881.38;4962425;28;20096;-69
2023/06/19 05:31:00;;;;;;;4.22;3.80;;;;;;;24.08;30.05;100888.63;4961976;28;20085;-73
2023/06/19 05:33:26;;;;;;;4.20;3.80;;;;;;;25.34;27.69;100889.41;4960209;28;20045;-73
2023/06/19 05:35:53;;;;;;;5.28;3.72;;;;;;;25.81;27.22;100883.63;4971606;28;20042;-71
2023/06/19 05:38:33;;;;;;;5.25;4.55;;;;;;;24.53;28.80;100878.94;4964219;28;20053;-70
2023/06/19 05:40:59;;;;;;;4.55;4.05;;;;;;;24.58;28.97;100882.81;4961833;28;20150;-73
2023/06/19 05:43:25;;;;;;;5.18;4.20;;;;;;;23.62;30.17;100887.69;4963391;28;20050;-73
2023/06/19 05:45:52;;;;;;;8.32;4.10;;;;;;;22.91;32.04;100888.97;4964701;28;20038;-72
2023/06/19 05:48:17;;;;;;;4.28;3.95;;;;;;;22.20;33.11;100899.84;4962776;28;21072;-71
2023/06/19 05:50:43;;;;;;;8.35;3.67;;;;;;;21.99;33.99;100897.25;4962143;28;20041;-67
2023/06/19 05:53:08;;;;;;;4.10;3.67;;;;;;;21.71;34.03;100898.81;4961402;28;20047;-67
2023/06/19 05:55:34;;;;;;;5.65;4.28;;;;;;;22.00;34.64;100903.41;4962804;28;20860;-70
2023/06/19 05:58:00;;;;;;;6.30;4.22;;;;;;;24.26;30.52;100901.13;4962446;28;20662;-69
2023/06/19 06:00:27;;;;;;;4.28;3.85;;;;;;;26.51;27.38;100906.56;4964486;28;20039;-71
2023/06/19 06:02:53;;;;;;;4.28;3.88;;;;;;;27.55;25.42;100904.19;4961262;28;20319;-71
2023/06/19 06:05:20;;;;;;;6.00;4.90;;;;;;;27.01;25.74;100902.94;4962368;28;20039;-68
2023/06/19 06:07:46;;;;;;;5.32;3.85;;;;;;;26.16;27.91;100903.19;4961726;28;20113;-68
2023/06/19 06:10:12;;;;;;;8.27;4.25;;;;;;;27.48;25.27;100902.19;4961268;28;20034;-73
2023/06/19 06:12:38;;;;;;;8.75;4.30;;;;;;;27.72;25.28;100901.28;4950740;28;20050;-73
2023/06/19 06:15:05;;;;;;;4.22;3.90;;;;;;;27.41;26.27;100903.88;4960358;28;20034;-72
2023/06/19 06:17:33;;;;;;;4.97;4.43;;;;;;;26.05;27.75;100911.50;4961991;28;20559;-71
2023/06/19 06:19:59;;;;;;;9.45;4.70;;;;;;;24.40;30.52;100904.13;4964187;28;20145;-71
2023/06/19 06:22:24;;;;;;;6.20;4.10;;;;;;;23.39;31.72;100906.75;4960140;28;20084;-71
2023/06/19 06:24:50;;;;;;;6.78;3.83;;;;;;;22.94;32.63;100915.34;4962817;28;20415;-78
2023/06/19 06:27:17;;;;;;;4.40;3.30;;;;;;;22.93;33.30;100919.00;4963895;28;20042;-71
2023/06/19 06:29:43;;;;;;;4.32;3.92;;;;;;;22.82;33.38;100918.31;4963120;28;20066;-70
2023/06/19 06:32:09;;;;;;;6.43;3.88;;;;;;;23.00;33.31;100920.09;4959224;28;20285;-69
2023/06/19 06:34:34;;;;;;;3.58;3.15;;;;;;;23.03;33.58;100934.13;4961115;28;20129;-70
2023/06/19 06:37:01;;;;;;;5.75;3.58;;;;;;;23.21;33.29;100924.44;4968258;28;20069;-74
2023/06/19 06:39:26;;;;;;;7.57;3.85;;;;;;;23.40;33.28;100932.41;4966117;28;20149;-79
2023/06/19 06:41:52;;;;;;;4.80;3.95;;;;;;;23.10;33.58;100935.28;4975627;28;20518;-78
2023/06/19 06:44:18;;;;;;;5.65;3.95;;;;;;;23.53;32.36;100936.59;4965962;28;20065;-73
2023/06/19 06:46:43;;;;;;;7.40;4.18;;;;;;;24.33;31.42;100934.28;4962416;28;20042;-69
2023/06/19 06:49:09;;;;;;;5.22;3.95;;;;;;;25.05;30.82;100941.34;4957220;28;20042;-71
2023/06/19 06:51:34;;;;;;;4.97;4.57;;;;;;;26.61;28.14;100939.47;4958688;28;20135;-72
2023/06/19 06:54:00;;;;;;;4.57;3.38;;;;;;;28.04;26.14;100936.22;4963324;28;20038;-72
2023/06/19 06:56:26;;;;;;;7.43;3.55;;;;;;;29.14;24.27;100933.31;4961892;28;20404;-72
2023/06/19 06:58:51;;;;;;;5.30;4.03;;;;;;;29.21;24.17;100938.81;4967027;28;20065;-72
2023/06/19 07:01:17;;;;;;;4.35;3.95;;;;;;;29.12;23.75;100936.19;4962634;28;20056;-73
2023/06/19 07:03:42;;;;;;;5.50;4.13;;;;;;;29.06;24.07;100926.13;4961602;28;20042;-72
2023/06/19 07:06:08;;;;;;;4.82;3.38;;;;;;;29.41;23.78;100939.09;4965739;28;20081;-72
2023/06/19 07:08:33;;;;;;;4.10;3.60;;;;;;;30.96;22.25;100937.00;4964825;28;20042;-72
2023/06/19 07:10:59;;;;;;;6.00;4.10;;;;;;;31.76;21.21;100940.25;4955667;28;20176;-73
2023/06/19 07:13:25;;;;;;;4.22;3.30;;;;;;;28.77;24.09;100950.25;4961829;28;20285;-74
2023/06/19 07:15:50;;;;;;;6.57;3.80;;;;;;;30.12;23.03;100934.91;4963129;28;20058;-73
2023/06/19 07:18:16;;;;;;;5.10;3.25;;;;;;;29.92;22.95;100941.88;4961535;28;20141;-73
2023/06/19 07:20:41;;;;;;;5.18;3.17;;;;;;;29.11;24.17;100950.66;4958334;28;20023;-73
2023/06/19 07:23:08;;;;;;;3.60;2.90;;;;;;;27.31;26.33;100946.16;4975299;28;20209;-73
2023/06/19 07:25:34;;;;;;;3.08;2.63;;;;;;;26.62;27.82;100951.84;4961438;28;21097;-73
2023/06/19 07:28:01;;;;;;;3.30;2.92;;;;;;;28.32;26.16;100950.88;4962487;28;20526;-72
2023/06/19 07:30:27;;;;;;;3.13;2.83;;;;;;;28.38;25.87;100948.50;4960722;28;20089;-73
2023/06/19 07:32:55;;;;;;;4.60;2.83;;;;;;;30.31;23.45;100954.19;4959485;28;20043;-72
2023/06/19 07:35:20;;;;;;;4.78;3.13;;;;;;;30.26;23.43;100946.66;4960164;28;20096;-72
2023/06/19 07:37:46;;;;;;;3.35;3.00;;;;;;;29.92;23.93;100956.19;4961498;28;20139;-73
2023/06/19 07:40:12;;;;;;;5.97;2.80;;;;;;;29.68;24.24;100959.19;4961884;28;20045;-72
2023/06/19 07:42:37;;;;;;;4.85;3.65;;;;;;;29.61;24.22;100967.16;4958497;28;20042;-72
2023/06/19 07:45:05;;;;;;;3.78;2.90;;;;;;;31.10;22.61;100962.25;4972125;28;20034;-71
2023/06/19 07:47:31;;;;;;;3.45;2.28;;;;;;;29.42;24.61;100957.78;4956175;28;20097;-71
2023/06/19 07:49:58;;;;;;;4.25;3.13;;;;;;;28.95;25.59;100966.94;4961179;28;20153;-71
2023/06/19 07:52:24;;;;;;;3.38;2.25;;;;;;;28.06;26.95;100972.66;4957058;28;20034;-72
2023/06/19 07:54:57;;;;;;;2.28;2.08;;;;;;;29.57;24.97;100976.59;4962137;28;20145;-72
2023/06/19 07:57:24;;;;;;;2.40;1.95;;;;;;;27.54;27.80;100970.47;4960867;28;20443;-72
2023/06/19 07:59:51;;;;;;;4.50;2.42;;;;;;;25.17;31.64;100984.72;4963812;28;20041;-71
2023/06/19 08:02:16;;;;;;;4.53;2.15;;;;;;;25.53;31.41;100976.69;4960260;28;20065;-71
2023/06/19 08:04:42;;;;;;;3.28;2.08;;;;;;;27.39;28.90;100989.09;4964634;28;20061;-73
2023/06/19 08:07:07;;;;;;;3.03;2.22;;;;;;;26.80;29.14;100986.53;4963988;28;20829;-72
2023/06/19 08:09:33;;;;;;;4.38;2.50;;;;;;;27.90;27.83;100984.31;4963163;28;20034;-71
2023/06/19 08:11:59;;;;;;;2.58;1.83;;;;;;;29.38;26.07;100983.38;4955327;28;20040;-73
2023/06/19 08:14:24;;;;;;;3.50;2.08;;;;;;;29.74;25.23;100985.38;4965949;28;20038;-72
2023/06/19 08:16:50;;;;;;;3.17;2.17;;;;;;;28.70;27.20;100994.03;4964733;28;20511;-73
2023/06/19 08:19:15;;;;;;;5.47;1.80;;;;;;;26.82;29.52;100997.94;4962437;28;20753;-72
2023/06/19 08:21:41;;;;;;;2.65;2.40;;;;;;;26.02;30.95;100997.50;4962277;28;20026;-74
2023/06/19 08:24:06;;;;;;;3.35;2.10;;;;;;;23.66;35.68;101005.66;4962904;28;20122;-71
2023/06/19 08:26:32;;;;;;;7.47;2.53;;;;;;;23.02;36.81;101020.41;4963172;28;20395;-73
2023/06/19 08:28:57;;;;;;;3.38;2.85;;;;;;;21.83;39.54;101014.81;4962605;28;20109;-72
2023/06/19 08:31:27;;;;;;;3.75;3.03;;;;;;;21.88;39.60;101030.41;4962444;28;20561;-73
2023/06/19 08:33:56;;;;;;;4.53;2.60;;;;;;;21.78;39.44;101025.03;4975748;28;20154;-72
2023/06/19 08:36:23;;;;;;;3.22;2.25;;;;;;;21.81;39.31;101021.25;4962583;28;20034;-73
2023/06/19 08:38:49;;;;;;;3.67;2.30;;;;;;;21.43;40.34;101020.00;4962309;28;20530;-72
2023/06/19 08:41:21;;;;;;;3.47;1.73;;;;;;;21.39;40.63;101015.91;4962314;28;20038;-72
2023/06/19 08:43:47;;;;;;;4.63;2.10;;;;;;;21.29;41.03;101024.66;4962320;28;20227;-71
2023/06/19 08:46:17;;;;;;;3.17;2.45;;;;;;;22.24;39.74;101030.88;4964551;28;20046;-72
2023/06/19 08:48:44;;;;;;;2.10;1.90;;;;;;;21.91;39.64;101023.00;4961587;28;20506;-71
2023/06/19 08:51:10;;;;;;;6.60;2.40;;;;;;;22.44;38.82;101024.63;4960661;28;20042;-71
2023/06/19 08:53:44;;;;;;;4.55;1.83;;;;;;;22.48;39.05;101026.03;4958824;28;20595;-71
2023/06/19 08:56:12;;;;;;;1.80;1.30;;;;;;;21.53;40.34;101035.09;4977837;28;20080;-72
2023/06/19 08:58:38;;;;;;;2.15;1.52;;;;;;;21.91;39.93;101038.09;4958429;28;20774;-72
2023/06/19 09:01:03;;;;;;;1.75;1.25;;;;;;;21.76;39.98;101041.13;4951875;28;20042;-72
2023/06/19 09:03:29;;;;;;;1.80;1.52;;;;;;;21.31;41.46;101043.13;4959674;28;20065;-72
2023/06/19 09:05:55;;;;;;;2.10;1.60;;;;;;;20.97;42.07;101050.38;4961211;28;20480;-71
2023/06/19 09:08:22;;;;;;;5.03;2.50;;;;;;;19.74;44.88;101060.00;4960243;28;20121;-70
2023/06/19 09:10:58;;;;;;;2.55;2.15;;;;;;;19.66;46.21;101072.06;4973448;28;20499;-71
2023/06/19 09:13:24;;;;;;;3.25;2.95;;;;;;;19.09;49.55;101088.63;4947917;28;20269;-72
2023/06/19 09:15:58;;;;;;;4.68;2.90;;;;;;;18.61;52.23;101085.88;4961762;28;20081;-71
2023/06/19 09:18:24;;;;;;;3.75;3.08;;;;;;;19.23;51.04;101096.44;4960993;28;20520;-71
2023/06/19 09:20:53;;;;;;;4.22;3.75;;;;;;;19.35;51.03;101099.13;4960498;28;20591;-71
2023/06/19 09:23:19;;;;;;;4.57;4.03;;;;;;;19.06;51.75;101096.81;4958695;28;20049;-72
2023/06/19 09:25:53;;;;;;;5.13;3.80;;;;;;;19.29;51.37;101101.25;4959141;28;20129;-72
2023/06/19 09:28:19;;;;;;;6.45;4.35;;;;;;;18.60;52.98;101102.72;4959432;28;20086;-70
2023/06/19 09:31:12;;;;;;;6.88;4.93;;;;;;;18.77;52.62;101104.19;4961154;28;20027;-72
2023/06/19 09:33:39;;;;;;;7.55;5.97;;;;;;;18.76;52.88;101108.59;4958688;28;20128;-72
2023/06/19 09:36:06;;;;;;;6.28;5.05;;;;;;;18.71;53.24;101110.72;4962580;28;20065;-71
2023/06/19 09:38:39;;;;;;;7.45;6.68;;;;;;;18.50;53.88;101114.88;4961092;28;20057;-73
2023/06/19 09:41:07;;;;;;;6.75;5.95;;;;;;;18.93;53.50;101110.09;4968512;28;20056;-71
2023/06/19 09:43:37;;;;;;;10.00;8.45;;;;;;;19.37;51.62;101113.97;4958078;28;20087;-71
2023/06/19 09:46:04;;;;;;;6.20;5.45;;;;;;;19.42;51.01;101108.31;4963541;28;20518;-71
2023/06/19 09:48:32;;;;;;;7.13;5.57;;;;;;;18.40;52.16;101101.47;4958209;28;20061;-72
2023/06/19 09:51:09;;;;;;;10.80;5.15;;;;;;;19.59;49.68;101101.78;4968327;28;20089;-72
2023/06/19 09:53:36;;;;;;;7.38;5.28;;;;;;;19.93;48.39;101108.03;4956505;28;20686;-71
2023/06/19 09:56:01;;;;;;;8.60;5.38;;;;;;;19.60;49.17;101112.28;4962686;28;20256;-72
2023/06/19 09:58:28;;;;;;;8.20;5.90;;;;;;;19.79;48.28;101110.88;4957861;28;20323;-71
2023/06/19 10:00:55;;;;;;;9.30;6.53;;;;;;;20.20;47.76;101109.53;4960418;28;20085;-72
2023/06/19 10:03:20;;;;;;;8.18;5.95;;;;;;;20.41;47.20;101112.34;4960577;28;20136;-71
2023/06/19 10:05:46;;;;;;;8.15;5.93;;;;;;;20.75;46.31;101113.19;4963477;28;20033;-73
2023/06/19 10:08:12;;;;;;;6.80;6.10;;;;;;;20.58;46.51;101116.34;4961399;28;20062;-71
2023/06/19 10:10:47;;;;;;;12.32;6.82;;;;;;;20.03;48.02;101114.31;4957781;28;20109;-71
2023/06/19 10:13:14;;;;;;;14.27;6.78;;;;;;;19.99;48.02;101131.44;4960201;28;20149;-72
2023/06/19 10:15:44;;;;;;;10.32;6.95;;;;;;;19.27;49.43;101128.81;4958088;28;21541;-71
2023/06/19 10:18:18;;;;;;;8.45;6.35;;;;;;;19.15;50.39;101129.75;4961411;28;20083;-72
2023/06/19 10:20:46;;;;;;;12.88;7.22;;;;;;;19.18;49.50;101130.34;4960413;28;20080;-71
2023/06/19 10:23:17;;;;;;;11.57;7.18;;;;;;;19.31;48.92;101138.25;4960262;28;20070;-71
2023/06/19 10:25:46;;;;;;;10.25;7.22;;;;;;;19.44;49.06;101136.41;4958915;28;20122;-72
2023/06/19 10:28:23;;;;;;;7.75;5.38;;;;;;;19.07;49.43;101143.53;4950686;28;20050;-71
2023/06/19 10:30:56;;;;;;;6.15;5.55;;;;;;;18.85;49.55;101142.41;4959337;28;20034;-71
2023/06/19 10:33:27;;;;;;;7.10;4.45;;;;;;;19.22;48.38;101139.75;4957902;28;20050;-72
2023/06/19 10:35:53;;;;;;;8.20;4.18;;;;;;;19.57;47.14;101152.28;4958393;28;21114;-71
2023/06/19 10:38:19;;;;;;;8.75;4.80;;;;;;;19.42;47.42;101154.22;4957621;28;20078;-71
2023/06/19 10:40:45;;;;;;;6.47;4.45;;;;;;;20.04;46.65;101158.47;4961200;28;20034;-72
2023/06/19 10:43:22;;;;;;;6.72;4.72;;;;;;;19.37;48.83;101160.78;4962954;28;20942;-71
2023/06/19 10:45:48;;;;;;;5.43;3.78;;;;;;;19.54;47.62;101157.75;4959462;28;20559;-70
2023/06/19 10:48:22;;;;;;;4.00;3.55;;;;;;;19.17;48.05;101168.41;4962334;28;20236;-71
2023/06/19 10:50:48;;;;;;;5.68;3.30;;;;;;;19.64;46.51;101165.94;4956371;28;20035;-71
2023/06/19 10:53:28;;;;;;;3.55;2.80;;;;;;;20.08;46.29;101162.59;4962352;28;20835;-72
2023/06/19 10:55:58;;;;;;;5.78;2.92;;;;;;;19.75;47.24;101159.81;4960999;28;20030;-72
2023/06/19 10:58:25;;;;;;;4.68;2.85;;;;;;;20.24;44.81;101146.38;4959789;28;20298;-71
2023/06/19 11:00:51;;;;;;;4.72;3.53;;;;;;;20.13;45.12;101148.97;4960041;28;20038;-72
2023/06/19 11:03:16;;;;;;;4.63;3.17;;;;;;;20.52;45.83;101146.88;4960838;28;20366;-71
2023/06/19 11:05:46;;;;;;;4.05;3.65;;;;;;;21.31;43.05;101147.66;4959614;28;20034;-71
2023/06/19 11:08:18;;;;;;;8.93;3.28;;;;;;;21.48;42.22;101150.78;4976386;28;20149;-71
2023/06/19 11:10:43;;;;;;;10.63;3.28;;;;;;;21.75;41.02;101145.81;4958848;28;20337;-71
2023/06/19 11:13:14;;;;;;;4.60;3.17;;;;;;;21.70;41.19;101145.38;4960563;28;20092;-72
2023/06/19 11:15:39;;;;;;;3.63;2.75;;;;;;;22.04;39.81;101145.19;4958835;28;20684;-72
2023/06/19 11:18:05;;;;;;;4.88;2.50;;;;;;;22.08;39.33;101149.31;4962483;28;20042;-72
2023/06/19 11:20:43;;;;;;;6.47;3.13;;;;;;;21.68;40.63;101152.63;4960371;28;20292;-72
2023/06/19 11:23:09;;;;;;;2.92;2.28;;;;;;;22.23;39.45;101138.34;4960919;28;20058;-72
2023/06/19 11:25:38;;;;;;;4.43;2.22;;;;;;;22.35;37.83;101147.94;4957087;28;20300;-72